Log in

Login to your account

Username *
Password *
Remember Me
C'est avec un grand plaisir que nous venons de réceptionner à l'Aéroclub de Savoie conjointement avec le CLAP et avec l'aide de la FFA un avion électrique Pipistrel VELIS !!
C'est parti pour des vols silencieux et sans essence !
 
Les vols de découverte et le début de formation sur cet avion novateur sont possibles !
 
 
  dsc9332 edit 11
 
 

Nous contacter

 Téléphone : +33 (0)4 79 54 41 81

Coordonnées détaillées et accès : cliquez ici

facebook 770688 960 720  logo instagram large

[source: ADDS]
METAR / TAF
LFLB 090730Z AUTO 02004KT 340V050 7000 -RA SCT009/// BKN018/// BKN025/// ///TCU 03/03 Q1001 TEMPO 2500 RA BR BKN006 =
TAF LFLB 090200Z 0903/1003 VRB03KT 8000 -RA BKN025 TEMPO 0903/1003 2500 RA BR BKN006 PROB30 TEMPO 0922/1003 1500 -SN BKN004

SR / SS: 07:04 / 15:52 UTC (Lever/Coucher du soleil le 2022-12-09)
JSN Boot template designed by JoomlaShine.com